Time;durP1;ratioP1;P1;durP2;ratioP2;P2;SDS_P1;SDS_P2;PMS_P1;PMS_P2;Temp;Humidity;BMP_temperature;BMP_pressure;BME280_temperature;BME280_humidity;BME280_pressure;Samples;Min_cycle;Max_cycle;Signal;HPM_P1;HPM_P2
2024/04/05 00:01:45;;;;;;;1.88;0.77;;;13.70;1.00;;;;;;5018641;28;20059;-81
2024/04/05 00:04:11;;;;;;;1.77;0.80;;;13.80;1.00;;;;;;4986337;28;20046;-81
2024/04/05 00:06:37;;;;;;;3.13;1.23;;;13.70;1.00;;;;;;5002513;28;20057;-81
2024/04/05 00:09:03;;;;;;;2.33;0.80;;;13.70;99.90;;;;;;5003006;28;20139;-81
2024/04/05 00:11:29;;;;;;;2.47;0.77;;;13.70;99.90;;;;;;5001688;28;20527;-81
2024/04/05 00:13:55;;;;;;;0.95;0.63;;;13.80;99.90;;;;;;5002856;28;20061;-81
2024/04/05 00:16:21;;;;;;;1.33;1.05;;;13.80;99.90;;;;;;5018927;28;20141;-81
2024/04/05 00:18:48;;;;;;;1.80;0.73;;;13.80;99.90;;;;;;4986682;28;20049;-81
2024/04/05 00:21:14;;;;;;;1.00;0.65;;;13.80;89.80;;;;;;5018452;28;20053;-81
2024/04/05 00:23:39;;;;;;;0.98;0.70;;;13.80;1.00;;;;;;5002636;28;20049;-81
2024/04/05 00:26:05;;;;;;;0.82;0.73;;;13.80;99.90;;;;;;5018516;28;20109;-80
2024/04/05 00:28:33;;;;;;;1.05;0.63;;;13.90;99.90;;;;;;5002478;28;20089;-81
2024/04/05 00:30:59;;;;;;;1.88;0.60;;;13.80;99.90;;;;;;5019148;28;20045;-81
2024/04/05 00:33:25;;;;;;;2.10;0.80;;;13.90;99.90;;;;;;4986368;28;20547;-81
2024/04/05 00:35:51;;;;;;;0.60;0.50;;;13.90;99.90;;;;;;5018259;28;20061;-81
2024/04/05 00:38:22;;;;;;;1.70;0.68;;;13.90;99.90;;;;;;5002049;28;20050;-81
2024/04/05 00:40:49;;;;;;;0.65;0.47;;;13.90;99.90;;;;;;5002349;28;20061;-81
2024/04/05 00:43:16;;;;;;;1.23;0.50;;;13.90;99.90;;;;;;5002226;28;20049;-80
2024/04/05 00:45:43;;;;;;;0.50;0.50;;;13.90;64.90;;;;;;5018940;28;20353;-81
2024/04/05 00:48:09;;;;;;;1.00;0.55;;;13.90;27.40;;;;;;5019011;28;20109;-81
2024/04/05 00:50:35;;;;;;;1.33;0.93;;;13.90;1.00;;;;;;5002326;28;20141;-81
2024/04/05 00:53:01;;;;;;;0.95;0.70;;;13.90;1.00;;;;;;4985701;28;20449;-81
2024/04/05 00:55:27;;;;;;;1.45;0.68;;;13.90;1.00;;;;;;5001856;28;20057;-81
2024/04/05 00:57:54;;;;;;;1.67;0.70;;;14.00;1.00;;;;;;5001855;28;20095;-81
2024/04/05 01:00:23;;;;;;;1.25;0.80;;;14.00;99.90;;;;;;5002544;28;20084;-81
2024/04/05 01:02:49;;;;;;;0.65;0.40;;;13.90;99.90;;;;;;5018287;28;20049;-81
2024/04/05 01:05:16;;;;;;;0.90;0.50;;;13.90;99.90;;;;;;5002447;28;20085;-81
2024/04/05 01:07:42;;;;;;;0.95;0.60;;;14.00;99.90;;;;;;5018597;28;20074;-80
2024/04/05 01:10:07;;;;;;;1.38;0.65;;;14.00;99.90;;;;;;4985672;28;20078;-81
2024/04/05 01:12:33;;;;;;;0.80;0.60;;;14.00;99.90;;;;;;5002084;28;20478;-81
2024/04/05 01:14:59;;;;;;;3.08;1.08;;;14.00;99.90;;;;;;5018708;28;20053;-81
2024/04/05 01:17:25;;;;;;;1.08;0.55;;;14.00;99.90;;;;;;5002198;28;20068;-81
2024/04/05 01:19:51;;;;;;;2.30;0.90;;;14.00;99.90;;;;;;5001949;28;20053;-81
2024/04/05 01:22:18;;;;;;;0.47;0.47;;;14.00;99.90;;;;;;5002024;28;20139;-81
2024/04/05 01:24:44;;;;;;;1.83;0.70;;;14.00;99.90;;;;;;4968992;28;20445;-80
2024/04/05 01:27:09;;;;;;;1.15;0.50;;;14.00;99.90;;;;;;4997728;28;20107;-81
2024/04/05 01:29:35;;;;;;;0.55;0.50;;;14.00;99.90;;;;;;5017183;28;20053;-81
2024/04/05 01:32:01;;;;;;;1.20;0.60;;;13.90;99.90;;;;;;5004598;28;20058;-81
2024/04/05 01:34:27;;;;;;;1.95;1.13;;;13.90;99.90;;;;;;4986318;28;20054;-80
2024/04/05 01:36:53;;;;;;;1.50;0.77;;;13.90;99.90;;;;;;5001085;28;20092;-81
2024/04/05 01:39:20;;;;;;;1.60;0.77;;;13.90;99.90;;;;;;4987932;28;20058;-81
2024/04/05 01:41:46;;;;;;;0.80;0.70;;;13.80;99.90;;;;;;5004668;28;20163;-80
2024/04/05 01:44:12;;;;;;;1.13;0.60;;;13.80;99.90;;;;;;5009646;28;20136;-80
2024/04/05 01:46:38;;;;;;;2.45;0.80;;;13.80;99.90;;;;;;5025363;28;20188;-80
2024/04/05 01:49:03;;;;;;;0.70;0.70;;;13.80;99.90;;;;;;5025165;28;20079;-81
2024/04/05 01:51:29;;;;;;;1.77;0.80;;;13.70;99.90;;;;;;5008374;28;20152;-81
2024/04/05 01:53:55;;;;;;;0.90;0.50;;;13.70;99.90;;;;;;5025329;28;20939;-81
2024/04/05 01:56:21;;;;;;;0.95;0.50;;;13.70;99.90;;;;;;5008127;28;20092;-81
2024/04/05 01:58:47;;;;;;;0.73;0.50;;;13.70;99.90;;;;;;4992784;28;20054;-81
2024/04/05 02:01:13;;;;;;;1.27;0.80;;;13.70;99.90;;;;;;5024913;28;20065;-81
2024/04/05 02:03:39;;;;;;;0.55;0.50;;;13.70;99.90;;;;;;5008477;28;20052;-81
2024/04/05 02:06:14;;;;;;;1.05;0.50;;;13.70;99.90;;;;;;5025337;28;20053;-81
2024/04/05 02:08:40;;;;;;;1.85;0.60;;;13.70;99.90;;;;;;5024826;28;20500;-82
2024/04/05 02:11:06;;;;;;;2.00;0.70;;;13.70;99.90;;;;;;5008243;28;20057;-82
2024/04/05 02:13:32;;;;;;;2.40;0.80;;;13.60;99.90;;;;;;5008315;28;20489;-81
2024/04/05 02:15:58;;;;;;;1.45;0.63;;;13.60;1.00;;;;;;5008595;28;20053;-81
2024/04/05 02:18:24;;;;;;;0.80;0.50;;;13.60;1.00;;;;;;5008679;28;20516;-82
2024/04/05 02:20:56;;;;;;;0.65;0.47;;;13.60;1.00;;;;;;5007868;28;20057;-81
2024/04/05 02:23:22;;;;;;;0.68;0.60;;;13.60;1.00;;;;;;5023980;28;20056;-81
2024/04/05 02:25:48;;;;;;;0.90;0.50;;;13.60;1.00;;;;;;5024473;28;20057;-82
2024/04/05 02:28:14;;;;;;;0.60;0.50;;;13.50;1.00;;;;;;5024470;28;20050;-81
2024/04/05 02:30:40;;;;;;;0.98;0.55;;;13.50;8.60;;;;;;5025059;28;20136;-81
2024/04/05 02:33:06;;;;;;;0.80;0.70;;;13.50;40.40;;;;;;5008195;28;20280;-81
2024/04/05 02:35:32;;;;;;;0.75;0.60;;;13.50;99.90;;;;;;5024285;28;20495;-81
2024/04/05 02:37:58;;;;;;;0.77;0.60;;;13.50;99.90;;;;;;4991068;28;20053;-81
2024/04/05 02:40:24;;;;;;;1.08;0.55;;;13.40;99.90;;;;;;5007832;28;20068;-81
2024/04/05 02:42:50;;;;;;;0.82;0.55;;;13.40;1.00;;;;;;5023854;28;20050;-81
2024/04/05 02:45:16;;;;;;;0.85;0.40;;;13.40;99.90;;;;;;5024268;28;20508;-80
2024/04/05 02:47:42;;;;;;;1.13;0.63;;;13.30;1.00;;;;;;5007777;28;20111;-81
2024/04/05 02:50:08;;;;;;;0.80;0.52;;;13.30;1.00;;;;;;5022966;28;20173;-81
2024/04/05 02:52:34;;;;;;;2.70;0.70;;;13.30;47.50;;;;;;4991437;28;20057;-81
2024/04/05 02:55:00;;;;;;;0.50;0.40;;;13.20;99.90;;;;;;5023887;28;20701;-81
2024/04/05 02:57:26;;;;;;;1.00;0.80;;;13.20;99.90;;;;;;5007230;28;20049;-81
2024/04/05 02:59:52;;;;;;;1.10;0.50;;;13.10;99.90;;;;;;5007731;28;20069;-81
2024/04/05 03:02:18;;;;;;;0.60;0.52;;;13.20;99.90;;;;;;5024069;28;20400;-81
2024/04/05 03:04:44;;;;;;;1.73;0.43;;;13.10;1.00;;;;;;4991258;28;20825;-81
2024/04/05 03:07:10;;;;;;;0.93;0.43;;;13.10;1.00;;;;;;5024129;28;20481;-81
2024/04/05 03:09:37;;;;;;;0.47;0.47;;;13.10;1.00;;;;;;5022991;28;20084;-81
2024/04/05 03:12:03;;;;;;;0.50;0.50;;;13.10;1.00;;;;;;5023647;28;20060;-80
2024/04/05 03:14:29;;;;;;;0.98;0.47;;;13.10;1.00;;;;;;5024120;28;20728;-81
2024/04/05 03:16:55;;;;;;;1.00;0.40;;;13.10;99.90;;;;;;5023569;28;20053;-81
2024/04/05 03:19:21;;;;;;;1.10;0.40;;;13.10;99.90;;;;;;5007025;28;20056;-81
2024/04/05 03:21:47;;;;;;;1.00;0.55;;;13.10;99.90;;;;;;5022930;28;20053;-81
2024/04/05 03:24:13;;;;;;;0.40;0.30;;;13.10;99.90;;;;;;5006879;28;20053;-81
2024/04/05 03:26:39;;;;;;;1.17;0.47;;;13.00;99.90;;;;;;4990542;28;20064;-81
2024/04/05 03:29:06;;;;;;;1.67;0.75;;;13.00;99.90;;;;;;5023756;28;20123;-81
2024/04/05 03:31:32;;;;;;;0.75;0.45;;;13.00;99.90;;;;;;5023248;28;20057;-80
2024/04/05 03:33:58;;;;;;;1.10;0.40;;;13.00;99.90;;;;;;5007053;28;20504;-81
2024/04/05 03:36:24;;;;;;;1.52;0.43;;;13.00;99.90;;;;;;4989615;28;20103;-80
2024/04/05 03:38:50;;;;;;;1.25;0.30;;;13.00;99.90;;;;;;5023113;28;20084;-81
2024/04/05 03:41:16;;;;;;;0.77;0.50;;;13.00;99.90;;;;;;5005890;28;20369;-80
2024/04/05 03:43:42;;;;;;;0.40;0.40;;;13.00;99.90;;;;;;5023200;28;20057;-81
2024/04/05 03:46:08;;;;;;;0.25;0.25;;;13.00;99.90;;;;;;5006656;28;20057;-81
2024/04/05 03:48:34;;;;;;;1.80;0.60;;;13.00;99.90;;;;;;5006701;28;20075;-81
2024/04/05 03:51:00;;;;;;;0.93;0.50;;;12.90;99.90;;;;;;5006030;28;20049;-81
2024/04/05 03:53:26;;;;;;;0.40;0.30;;;12.90;1.00;;;;;;5005920;28;20057;-81
2024/04/05 03:55:55;;;;;;;1.08;0.50;;;12.90;1.00;;;;;;5006243;28;20089;-81
2024/04/05 03:58:21;;;;;;;0.93;0.50;;;12.90;99.90;;;;;;5022399;28;20054;-82
2024/04/05 04:00:55;;;;;;;0.73;0.40;;;12.90;99.90;;;;;;5006594;28;20056;-81
2024/04/05 04:03:20;;;;;;;;;;;12.80;99.90;;;;;;5007287;28;20050;-81
2024/04/05 04:05:47;;;;;;;1.35;0.35;;;12.90;99.90;;;;;;5022992;28;20369;-81
2024/04/05 04:08:12;;;;;;;0.52;0.40;;;12.80;1.00;;;;;;5022179;28;20527;-81
2024/04/05 04:10:39;;;;;;;0.95;0.50;;;12.90;6.30;;;;;;5005642;28;20061;-80
2024/04/05 04:13:05;;;;;;;0.82;0.50;;;12.90;97.00;;;;;;5022699;28;20065;-80
2024/04/05 04:15:31;;;;;;;1.13;0.52;;;12.90;99.90;;;;;;5006225;28;20500;-80
2024/04/05 04:17:56;;;;;;;0.85;0.45;;;12.90;99.90;;;;;;5022694;28;20136;-81
2024/04/05 04:20:23;;;;;;;0.98;0.50;;;12.90;99.90;;;;;;5005844;28;20093;-81
2024/04/05 04:22:49;;;;;;;0.73;0.50;;;12.90;99.90;;;;;;5022165;28;20123;-81
2024/04/05 04:25:15;;;;;;;0.75;0.50;;;12.90;99.90;;;;;;5005968;28;20061;-81
2024/04/05 04:27:41;;;;;;;0.43;0.40;;;12.90;99.90;;;;;;5005908;28;20100;-81
2024/04/05 04:30:09;;;;;;;0.85;0.50;;;12.80;99.90;;;;;;5022783;28;20057;-81
2024/04/05 04:32:35;;;;;;;0.40;0.40;;;12.90;99.90;;;;;;5022354;28;20054;-81
2024/04/05 04:35:03;;;;;;;0.77;0.38;;;12.80;99.90;;;;;;5022314;28;20207;-81
2024/04/05 04:37:29;;;;;;;1.77;0.50;;;12.80;99.90;;;;;;5021706;28;20498;-81
2024/04/05 04:39:55;;;;;;;0.93;0.50;;;12.80;99.90;;;;;;5005667;28;20092;-81
2024/04/05 04:42:20;;;;;;;1.25;0.60;;;12.80;99.90;;;;;;4989388;28;20061;-81
2024/04/05 04:44:47;;;;;;;1.05;0.50;;;12.80;99.90;;;;;;4990170;28;20061;-80
2024/04/05 04:47:13;;;;;;;1.77;1.00;;;12.90;99.90;;;;;;5006473;28;20050;-81
2024/04/05 04:49:39;;;;;;;1.90;0.60;;;12.90;99.90;;;;;;5005775;28;20055;-80
2024/04/05 04:52:05;;;;;;;1.05;0.40;;;12.90;99.90;;;;;;5021573;28;20705;-81
2024/04/05 04:54:31;;;;;;;0.60;0.50;;;12.90;83.30;;;;;;4989546;28;20057;-81
2024/04/05 04:56:57;;;;;;;1.35;0.60;;;13.00;8.20;;;;;;5021885;28;20084;-81
2024/04/05 04:59:28;;;;;;;0.98;0.40;;;13.00;1.00;;;;;;5006598;28;20065;-81
2024/04/05 05:01:57;;;;;;;1.23;0.40;;;13.00;1.00;;;;;;5022211;28;20061;-81
2024/04/05 05:04:23;;;;;;;1.50;0.75;;;13.10;99.90;;;;;;5000830;28;20054;-81
2024/04/05 05:06:50;;;;;;;1.20;0.45;;;13.10;99.90;;;;;;5002578;28;20596;-81
2024/04/05 05:09:16;;;;;;;1.35;0.40;;;13.10;99.90;;;;;;5035490;28;20061;-81
2024/04/05 05:11:43;;;;;;;1.85;0.73;;;13.10;1.00;;;;;;5002842;28;20053;-82
2024/04/05 05:14:09;;;;;;;1.10;0.47;;;13.20;1.00;;;;;;5005437;28;20466;-84
2024/04/05 05:16:37;;;;;;;1.25;0.57;;;13.20;99.90;;;;;;4991525;28;20112;-84
2024/04/05 05:19:07;;;;;;;1.05;0.40;;;13.30;1.00;;;;;;5005586;28;20061;-83
2024/04/05 05:21:34;;;;;;;1.40;0.90;;;13.30;1.00;;;;;;5005480;28;20072;-84
2024/04/05 05:24:00;;;;;;;1.55;0.50;;;13.20;1.00;;;;;;4990108;28;20061;-84
2024/04/05 05:26:26;;;;;;;0.95;0.50;;;13.20;30.50;;;;;;5005306;28;20053;-83
2024/04/05 05:28:52;;;;;;;1.10;0.90;;;13.20;99.90;;;;;;5006443;28;20068;-83
2024/04/05 05:31:18;;;;;;;0.82;0.60;;;13.20;81.30;;;;;;5006092;28;20057;-83
2024/04/05 05:33:44;;;;;;;1.75;0.52;;;13.20;96.90;;;;;;5005172;28;20111;-84
2024/04/05 05:36:11;;;;;;;3.05;1.02;;;13.30;1.00;;;;;;4989145;28;20065;-83
2024/04/05 05:38:38;;;;;;;2.53;0.90;;;13.30;1.00;;;;;;5022928;28;20061;-84
2024/04/05 05:41:04;;;;;;;1.05;0.60;;;13.30;99.90;;;;;;5005505;28;20053;-83
2024/04/05 05:43:29;;;;;;;1.38;0.60;;;13.30;99.90;;;;;;4985714;28;20544;-82
2024/04/05 05:45:55;;;;;;;1.08;0.57;;;13.20;1.00;;;;;;5004156;28;20061;-82
2024/04/05 05:48:21;;;;;;;1.27;0.60;;;13.20;99.90;;;;;;4996799;28;20057;-82
2024/04/05 05:50:47;;;;;;;0.90;0.50;;;13.20;99.90;;;;;;5004023;28;20054;-82
2024/04/05 05:53:13;;;;;;;0.65;0.43;;;13.10;99.90;;;;;;5005011;28;20111;-82
2024/04/05 05:55:39;;;;;;;1.42;0.63;;;13.10;99.90;;;;;;4989083;28;20103;-83
2024/04/05 05:58:05;;;;;;;0.20;0.20;;;13.10;1.00;;;;;;5022007;28;20054;-82
2024/04/05 06:00:31;;;;;;;1.38;0.47;;;13.10;1.00;;;;;;4989551;28;20066;-82
2024/04/05 06:02:57;;;;;;;1.60;0.50;;;13.10;1.00;;;;;;4988160;28;20126;-83
2024/04/05 06:05:23;;;;;;;1.42;0.50;;;13.10;99.90;;;;;;5021761;28;20542;-83
2024/04/05 06:07:51;;;;;;;0.93;0.50;;;13.10;99.90;;;;;;5007665;28;20056;-85
2024/04/05 06:10:17;;;;;;;0.40;0.38;;;13.10;99.90;;;;;;5001829;28;20061;-84
2024/04/05 06:12:43;;;;;;;0.60;0.30;;;13.00;99.90;;;;;;4984686;28;20049;-84
2024/04/05 06:15:10;;;;;;;1.05;0.38;;;13.00;99.90;;;;;;5003184;28;20068;-84
2024/04/05 06:17:36;;;;;;;1.25;0.40;;;13.00;99.90;;;;;;5010220;28;20049;-82
2024/04/05 06:20:06;;;;;;;0.55;0.45;;;13.00;99.90;;;;;;5004003;28;20606;-82
2024/04/05 06:22:32;;;;;;;2.58;1.13;;;13.00;1.00;;;;;;5022113;28;20056;-80
2024/04/05 06:24:58;;;;;;;0.60;0.55;;;12.90;12.90;;;;;;4987665;28;20104;-81
2024/04/05 06:27:24;;;;;;;0.65;0.40;;;12.90;99.90;;;;;;5025771;28;20053;-83
2024/04/05 06:29:54;;;;;;;1.05;0.40;;;12.90;99.90;;;;;;5013282;28;20056;-83
2024/04/05 06:32:20;;;;;;;0.50;0.30;;;12.90;99.90;;;;;;5027568;28;20052;-84
2024/04/05 06:34:46;;;;;;;0.77;0.43;;;12.80;1.00;;;;;;4972562;28;20057;-84
2024/04/05 06:37:13;;;;;;;1.15;0.60;;;12.80;1.00;;;;;;4972992;28;20110;-82
2024/04/05 06:39:40;;;;;;;1.50;0.70;;;12.80;1.00;;;;;;5006034;28;20045;-83
2024/04/05 06:42:07;;;;;;;1.45;0.60;;;12.70;99.90;;;;;;5005415;28;20069;-85
2024/04/05 06:44:35;;;;;;;1.25;0.60;;;12.70;99.90;;;;;;4986109;28;20050;-84
2024/04/05 06:47:06;;;;;;;0.82;0.50;;;12.70;1.00;;;;;;5006777;28;20050;-83
2024/04/05 06:49:33;;;;;;;1.30;0.50;;;12.70;1.00;;;;;;4987510;28;20041;-84
2024/04/05 06:52:04;;;;;;;2.10;1.02;;;12.70;1.00;;;;;;5002337;28;20100;-85
2024/04/05 06:54:34;;;;;;;0.60;0.40;;;12.70;38.90;;;;;;5002849;28;20913;-85
2024/04/05 06:57:02;;;;;;;1.00;0.50;;;12.60;99.90;;;;;;4991855;28;20052;-82
2024/04/05 06:59:33;;;;;;;0.32;0.30;;;12.60;99.90;;;;;;5009201;28;20317;-81
2024/04/05 07:01:59;;;;;;;1.02;0.40;;;12.70;99.90;;;;;;4999700;28;20056;-82
2024/04/05 07:04:26;;;;;;;0.30;0.20;;;12.70;99.90;;;;;;5020365;28;20646;-81
2024/04/05 07:06:52;;;;;;;0.88;0.50;;;12.70;99.90;;;;;;4987806;28;20603;-84
2024/04/05 07:09:22;;;;;;;0.20;0.20;;;12.70;99.90;;;;;;5002155;28;20110;-81
2024/04/05 07:11:49;;;;;;;0.22;0.22;;;12.70;99.90;;;;;;5016593;28;20045;-82
2024/04/05 07:14:18;;;;;;;0.28;0.25;;;12.70;99.90;;;;;;4997055;28;20081;-85
2024/04/05 07:16:44;;;;;;;1.15;0.45;;;12.70;99.90;;;;;;4991853;28;20496;-81
2024/04/05 07:19:11;;;;;;;0.28;0.20;;;12.60;99.90;;;;;;5034350;28;20061;-83
2024/04/05 07:21:37;;;;;;;0.93;0.40;;;12.60;99.90;;;;;;5002818;28;20045;-85
2024/04/05 07:24:04;;;;;;;0.60;0.30;;;12.60;99.90;;;;;;4983684;28;20398;-85
2024/04/05 07:26:32;;;;;;;0.30;0.22;;;12.60;99.90;;;;;;4980659;28;20135;-82
2024/04/05 07:28:58;;;;;;;0.40;0.40;;;12.60;99.90;;;;;;5006017;28;20057;-83
2024/04/05 07:31:24;;;;;;;0.52;0.40;;;12.60;99.90;;;;;;5011945;28;20146;-83
2024/04/05 07:33:50;;;;;;;0.57;0.40;;;12.60;1.00;;;;;;5001907;28;20149;-83
2024/04/05 07:36:17;;;;;;;0.25;0.25;;;12.60;99.90;;;;;;5001745;28;20073;-83
2024/04/05 07:38:43;;;;;;;0.45;0.45;;;12.60;99.90;;;;;;5003185;28;20048;-81
2024/04/05 07:41:09;;;;;;;1.10;0.32;;;12.60;99.90;;;;;;5003969;28;20053;-80
2024/04/05 07:43:35;;;;;;;0.98;0.65;;;12.70;99.90;;;;;;4989216;28;20114;-84
2024/04/05 07:46:01;;;;;;;1.30;0.50;;;12.80;1.00;;;;;;4987888;28;20049;-83
2024/04/05 07:48:27;;;;;;;0.63;0.45;;;12.90;99.90;;;;;;4985267;28;20061;-83
2024/04/05 07:50:58;;;;;;;1.30;0.57;;;12.90;99.90;;;;;;5003312;28;20057;-81
2024/04/05 07:53:25;;;;;;;2.13;0.90;;;13.00;99.90;;;;;;5005897;28;20042;-89
2024/04/05 07:55:55;;;;;;;1.15;0.70;;;13.00;99.90;;;;;;4983225;28;20053;-88
2024/04/05 07:58:22;;;;;;;2.58;0.68;;;13.10;76.20;;;;;;4980408;28;20050;-90
2024/04/05 08:00:50;;;;;;;3.08;0.80;;;13.10;96.20;;;;;;4994397;28;20053;-90
2024/04/05 08:03:24;;;;;;;2.47;0.90;;;13.20;99.90;;;;;;4994856;28;20057;-91
2024/04/05 08:05:53;;;;;;;2.38;0.80;;;13.20;99.90;;;;;;4995426;28;20061;-91
2024/04/05 08:08:22;;;;;;;1.95;0.70;;;13.20;91.40;;;;;;5011500;28;20057;-90
2024/04/05 08:11:08;;;;;;;1.77;0.63;;;13.30;1.00;;;;;;5010386;28;20049;-90
2024/04/05 08:13:34;;;;;;;2.88;0.65;;;13.30;99.90;;;;;;4976464;28;21633;-90
2024/04/05 08:16:01;;;;;;;1.92;0.80;;;13.30;99.90;;;;;;4973603;28;20069;-90
2024/04/05 08:18:30;;;;;;;1.45;0.60;;;13.40;99.90;;;;;;4990366;28;20117;-90
2024/04/05 08:20:57;;;;;;;1.73;0.88;;;13.40;99.90;;;;;;4973857;28;20449;-90
2024/04/05 08:23:39;;;;;;;1.27;0.60;;;13.40;62.40;;;;;;5007085;28;20053;-91
2024/04/05 08:26:05;;;;;;;1.58;0.77;;;13.40;60.80;;;;;;4993635;28;20068;-91
2024/04/05 08:28:37;;;;;;;1.55;0.60;;;13.50;1.00;;;;;;4994859;28;20049;-91
2024/04/05 08:31:03;;;;;;;1.95;0.68;;;13.50;1.00;;;;;;4971642;28;20149;-81
2024/04/05 08:33:40;;;;;;;0.90;0.60;;;13.60;1.00;;;;;;5010376;28;20053;-91
2024/04/05 08:36:06;;;;;;;1.73;0.88;;;13.60;1.00;;;;;;4979243;28;20123;-91
2024/04/05 08:38:34;;;;;;;1.20;0.80;;;13.60;99.90;;;;;;4979990;28;20065;-90
2024/04/05 08:41:00;;;;;;;1.55;0.80;;;13.60;1.00;;;;;;4995428;28;20050;-90
2024/04/05 08:43:27;;;;;;;0.80;0.55;;;13.60;99.90;;;;;;4994996;28;20057;-89
2024/04/05 08:46:05;;;;;;;2.80;0.90;;;13.60;99.90;;;;;;4975798;28;20057;-90
2024/04/05 08:48:33;;;;;;;1.48;0.85;;;13.70;99.90;;;;;;5002378;28;20056;-89
2024/04/05 08:51:09;;;;;;;1.77;0.73;;;13.80;99.90;;;;;;4983475;28;20065;-90
2024/04/05 08:53:42;;;;;;;1.98;0.65;;;13.90;99.90;;;;;;4999781;28;20057;-91
2024/04/05 08:56:10;;;;;;;2.10;0.93;;;14.00;99.90;;;;;;4998011;28;20053;-88
2024/04/05 08:58:36;;;;;;;1.50;0.73;;;14.00;99.90;;;;;;4992754;28;20052;-82
2024/04/05 09:01:01;;;;;;;2.08;0.98;;;14.20;99.90;;;;;;5026139;28;20058;-82
2024/04/05 09:03:27;;;;;;;1.40;0.82;;;14.30;99.90;;;;;;5009254;28;20049;-82
2024/04/05 09:05:53;;;;;;;2.38;0.80;;;14.30;99.90;;;;;;5010059;28;20424;-82
2024/04/05 09:08:20;;;;;;;2.33;1.08;;;14.40;99.90;;;;;;4992460;28;20070;-82
2024/04/05 09:10:52;;;;;;;3.38;1.35;;;14.30;99.90;;;;;;5018285;28;20053;-82
2024/04/05 09:13:20;;;;;;;4.47;1.15;;;14.30;99.90;;;;;;4990838;28;20814;-85
2024/04/05 09:15:52;;;;;;;4.13;1.80;;;14.20;99.90;;;;;;4976406;28;20072;-86
2024/04/05 09:18:25;;;;;;;2.25;0.90;;;14.10;99.90;;;;;;4974770;28;20065;-85
2024/04/05 09:20:52;;;;;;;3.13;1.05;;;14.10;99.90;;;;;;4996751;28;20516;-85
2024/04/05 09:23:19;;;;;;;3.35;1.13;;;14.10;99.90;;;;;;4978505;28;20056;-86
2024/04/05 09:25:58;;;;;;;3.67;1.15;;;14.10;99.90;;;;;;4991188;28;20545;-86
2024/04/05 09:28:29;;;;;;;1.40;0.93;;;14.20;99.90;;;;;;4980247;28;20056;-86
2024/04/05 09:30:57;;;;;;;1.55;0.80;;;14.30;99.90;;;;;;4978065;28;20050;-86
2024/04/05 09:33:23;;;;;;;1.77;1.10;;;14.30;99.90;;;;;;5009046;28;20046;-86
2024/04/05 09:35:49;;;;;;;1.45;0.70;;;14.40;99.90;;;;;;4980452;28;20053;-86
2024/04/05 09:38:17;;;;;;;2.85;1.20;;;14.50;99.90;;;;;;4981655;28;20128;-87
2024/04/05 09:40:43;;;;;;;3.95;1.48;;;14.50;99.90;;;;;;4982191;28;20072;-86
2024/04/05 09:43:10;;;;;;;2.75;1.38;;;14.50;99.90;;;;;;4975976;28;20473;-86
2024/04/05 09:45:43;;;;;;;2.35;1.00;;;14.50;99.90;;;;;;4990968;28;20066;-88
2024/04/05 09:48:10;;;;;;;3.33;1.30;;;14.60;99.90;;;;;;5010261;28;20049;-87
2024/04/05 09:50:42;;;;;;;2.63;1.20;;;14.80;99.90;;;;;;4993938;28;20053;-88
2024/04/05 09:53:18;;;;;;;2.70;1.10;;;15.00;99.90;;;;;;4994673;28;20461;-88
2024/04/05 09:55:49;;;;;;;4.43;1.67;;;15.20;99.90;;;;;;4989297;28;20299;-89
2024/04/05 09:58:19;;;;;;;4.45;2.03;;;15.20;99.90;;;;;;4976511;28;20057;-89
2024/04/05 10:00:52;;;;;;;4.22;1.40;;;15.10;99.90;;;;;;4975083;28;20061;-87
2024/04/05 10:03:22;;;;;;;4.97;1.40;;;15.10;99.90;;;;;;4977874;28;20049;-88
2024/04/05 10:05:49;;;;;;;3.60;1.38;;;15.20;99.90;;;;;;5010703;28;20484;-88
2024/04/05 10:08:22;;;;;;;4.93;1.95;;;15.30;99.90;;;;;;4994145;28;20057;-88
2024/04/05 10:10:48;;;;;;;;;;;15.50;99.90;;;;;;4987139;28;20049;-79
2024/04/05 10:13:24;;;;;;;3.38;1.30;;;15.60;99.90;;;;;;5017336;28;20012;-83
2024/04/05 10:15:58;;;;;;;4.60;1.60;;;15.80;94.60;;;;;;5003039;28;20049;-82
2024/04/05 10:18:28;;;;;;;3.60;1.40;;;15.90;96.60;;;;;;5000026;28;20061;-83
2024/04/05 10:21:07;;;;;;;4.97;1.30;;;16.00;90.10;;;;;;4983594;28;20473;-83
2024/04/05 10:23:34;;;;;;;5.10;1.60;;;16.00;72.10;;;;;;4987250;28;20064;-83
2024/04/05 10:26:00;;;;;;;3.40;1.55;;;15.90;65.10;;;;;;4987326;28;20053;-82
2024/04/05 10:28:28;;;;;;;2.92;1.20;;;16.00;70.20;;;;;;4970479;28;20061;-83
2024/04/05 10:30:55;;;;;;;2.85;1.20;;;16.00;64.80;;;;;;4968144;28;20060;-83
2024/04/05 10:33:21;;;;;;;5.53;1.95;;;16.10;56.60;;;;;;4986853;28;20080;-82
2024/04/05 10:35:50;;;;;;;3.13;1.10;;;16.20;54.30;;;;;;4986548;28;20127;-82
2024/04/05 10:38:16;;;;;;;2.83;1.17;;;16.30;53.50;;;;;;5002415;28;20141;-82
2024/04/05 10:40:57;;;;;;;4.65;1.33;;;16.50;49.90;;;;;;4984958;28;20054;-82
2024/04/05 10:43:23;;;;;;;4.53;1.73;;;16.70;43.30;;;;;;4985539;28;20042;-83
2024/04/05 10:45:54;;;;;;;3.15;1.27;;;16.70;24.90;;;;;;5002834;28;20060;-83
2024/04/05 10:48:21;;;;;;;3.03;1.50;;;16.80;21.60;;;;;;4986415;28;20622;-82
2024/04/05 10:50:49;;;;;;;2.92;1.40;;;17.00;25.90;;;;;;4986234;28;20057;-82
2024/04/05 10:53:18;;;;;;;4.75;1.90;;;17.20;21.20;;;;;;4986365;28;20060;-83
2024/04/05 10:55:45;;;;;;;3.60;1.60;;;17.10;9.10;;;;;;4984177;28;20060;-83
2024/04/05 10:58:14;;;;;;;4.30;1.50;;;17.00;8.90;;;;;;4970496;28;20512;-83
2024/04/05 11:00:40;;;;;;;3.10;1.42;;;16.90;8.00;;;;;;4986745;28;20060;-83
2024/04/05 11:03:10;;;;;;;3.38;1.50;;;16.70;5.40;;;;;;4967763;28;20264;-83
2024/04/05 11:05:36;;;;;;;4.97;1.48;;;16.50;5.20;;;;;;4986338;28;20103;-84
2024/04/05 11:08:04;;;;;;;3.17;1.30;;;16.60;8.10;;;;;;4969268;28;20415;-84
2024/04/05 11:10:34;;;;;;;2.10;1.13;;;16.70;7.10;;;;;;5001310;28;20123;-84
2024/04/05 11:13:15;;;;;;;5.13;1.73;;;16.90;5.20;;;;;;4985450;28;20056;-83
2024/04/05 11:15:41;;;;;;;3.90;1.40;;;17.20;4.90;;;;;;4972373;28;20353;-84
2024/04/05 11:18:07;;;;;;;2.42;1.00;;;17.40;1.80;;;;;;4985573;28;20649;-81
2024/04/05 11:20:35;;;;;;;4.45;1.40;;;17.60;9.40;;;;;;5017630;28;20532;-81
2024/04/05 11:23:02;;;;;;;4.00;1.67;;;17.50;1.00;;;;;;4984893;28;20148;-80
2024/04/05 11:25:28;;;;;;;4.50;1.50;;;17.30;1.00;;;;;;5017656;28;20061;-80
2024/04/05 11:27:54;;;;;;;4.38;1.63;;;17.10;1.00;;;;;;4995232;28;20045;-80
2024/04/05 11:30:20;;;;;;;5.00;1.90;;;17.00;1.00;;;;;;5018074;28;20108;-80
2024/04/05 11:32:48;;;;;;;4.05;1.40;;;17.10;1.00;;;;;;4984739;28;20191;-80
2024/04/05 11:35:13;;;;;;;4.68;1.60;;;17.10;1.00;;;;;;5018532;28;20513;-80
2024/04/05 11:37:43;;;;;;;3.70;1.67;;;16.90;1.00;;;;;;5001213;28;20054;-80
2024/04/05 11:40:10;;;;;;;2.38;1.00;;;17.10;1.00;;;;;;5000772;28;20061;-80
2024/04/05 11:42:39;;;;;;;3.25;1.42;;;17.60;1.00;;;;;;5000460;28;20053;-79
2024/04/05 11:45:05;;;;;;;2.80;1.17;;;18.00;1.00;;;;;;5001715;28;20065;-80
2024/04/05 11:47:35;;;;;;;3.05;1.38;;;18.50;1.00;;;;;;5001716;28;20053;-80
2024/04/05 11:50:01;;;;;;;3.30;1.60;;;18.70;1.00;;;;;;4984770;28;20775;-80
2024/04/05 11:52:27;;;;;;;5.65;2.03;;;18.90;1.00;;;;;;5000747;28;20045;-80
2024/04/05 11:54:53;;;;;;;3.88;1.70;;;18.90;1.00;;;;;;5001164;28;20054;-80
2024/04/05 11:57:19;;;;;;;4.13;1.75;;;18.90;1.00;;;;;;4999332;28;20194;-80
2024/04/05 11:59:45;;;;;;;2.78;1.10;;;18.70;1.00;;;;;;5001217;28;20057;-80
2024/04/05 12:02:11;;;;;;;4.30;1.70;;;18.50;1.00;;;;;;5001229;28;20061;-80
2024/04/05 12:04:38;;;;;;;3.88;1.25;;;18.30;1.00;;;;;;4983106;28;20057;-81
2024/04/05 12:07:04;;;;;;;3.90;1.77;;;18.40;1.00;;;;;;5016938;28;20060;-80
2024/04/05 12:09:31;;;;;;;2.90;1.60;;;18.40;1.00;;;;;;5000929;28;20080;-79
2024/04/05 12:11:57;;;;;;;5.93;2.22;;;18.60;1.00;;;;;;5000667;28;20064;-80
2024/04/05 12:14:23;;;;;;;5.80;2.55;;;18.60;1.00;;;;;;4981897;28;20121;-80
2024/04/05 12:16:49;;;;;;;4.68;2.08;;;18.60;1.00;;;;;;5016848;28;20055;-81
2024/04/05 12:19:15;;;;;;;4.25;1.90;;;18.60;1.00;;;;;;4984670;28;20080;-80
2024/04/05 12:21:41;;;;;;;3.65;1.90;;;18.80;1.00;;;;;;5000175;28;20061;-80
2024/04/05 12:24:07;;;;;;;4.18;1.52;;;19.20;1.00;;;;;;4980926;28;20081;-81
2024/04/05 12:26:33;;;;;;;4.10;2.10;;;19.50;1.00;;;;;;4980899;28;20128;-80
2024/04/05 12:28:59;;;;;;;5.15;1.77;;;19.50;1.00;;;;;;4992252;28;20127;-81
2024/04/05 12:31:26;;;;;;;6.70;2.38;;;19.70;1.00;;;;;;5000038;28;20137;-81
2024/04/05 12:33:52;;;;;;;5.20;1.63;;;20.20;1.00;;;;;;4999999;28;20107;-81
2024/04/05 12:36:19;;;;;;;3.75;1.48;;;20.00;1.00;;;;;;4984702;28;20068;-83
2024/04/05 12:38:46;;;;;;;2.85;1.40;;;20.10;1.00;;;;;;4970145;28;20772;-82
2024/04/05 12:41:17;;;;;;;3.85;1.52;;;20.20;1.00;;;;;;5000297;28;20053;-81
2024/04/05 12:43:43;;;;;;;4.25;1.25;;;20.30;1.00;;;;;;5000455;28;20519;-82
2024/04/05 12:46:09;;;;;;;3.05;1.55;;;20.00;1.00;;;;;;4983125;28;20152;-82
2024/04/05 12:48:35;;;;;;;4.25;1.83;;;20.10;1.00;;;;;;5016847;28;20401;-82
2024/04/05 12:51:03;;;;;;;3.60;1.70;;;20.00;1.00;;;;;;5000542;28;20114;-82